sensor_id;sensor_type;location;lat;lon;timestamp;temperature;humidity
1948;DHT22;974;52.400;9.818;2022-07-10T00:00:12;14.50;99.90
1948;DHT22;974;52.400;9.818;2022-07-10T00:02:40;14.50;99.90
1948;DHT22;974;52.400;9.818;2022-07-10T00:05:06;14.30;99.90
1948;DHT22;974;52.400;9.818;2022-07-10T00:07:32;14.30;99.90
1948;DHT22;974;52.400;9.818;2022-07-10T00:09:58;14.30;99.90
1948;DHT22;974;52.400;9.818;2022-07-10T00:12:24;14.30;99.90
1948;DHT22;974;52.400;9.818;2022-07-10T00:14:49;14.30;99.90
1948;DHT22;974;52.400;9.818;2022-07-10T00:17:15;14.20;99.90
1948;DHT22;974;52.400;9.818;2022-07-10T00:19:41;14.30;99.90
1948;DHT22;974;52.400;9.818;2022-07-10T00:22:06;14.30;99.90
1948;DHT22;974;52.400;9.818;2022-07-10T00:24:32;14.30;99.90
1948;DHT22;974;52.400;9.818;2022-07-10T00:26:58;14.30;99.90
1948;DHT22;974;52.400;9.818;2022-07-10T00:29:23;14.20;99.90
1948;DHT22;974;52.400;9.818;2022-07-10T00:31:49;14.20;99.90
1948;DHT22;974;52.400;9.818;2022-07-10T00:34:14;14.20;99.90
1948;DHT22;974;52.400;9.818;2022-07-10T00:36:40;14.20;99.90
1948;DHT22;974;52.400;9.818;2022-07-10T00:39:05;14.10;99.90
1948;DHT22;974;52.400;9.818;2022-07-10T00:41:31;14.10;99.90
1948;DHT22;974;52.400;9.818;2022-07-10T00:43:59;14.10;99.90
1948;DHT22;974;52.400;9.818;2022-07-10T00:46:25;14.10;99.90
1948;DHT22;974;52.400;9.818;2022-07-10T00:48:51;14.00;99.90
1948;DHT22;974;52.400;9.818;2022-07-10T00:51:19;14.10;99.90
1948;DHT22;974;52.400;9.818;2022-07-10T00:53:46;14.00;99.90
1948;DHT22;974;52.400;9.818;2022-07-10T00:56:16;14.20;99.90
1948;DHT22;974;52.400;9.818;2022-07-10T00:58:43;14.10;99.90
1948;DHT22;974;52.400;9.818;2022-07-10T01:01:10;14.10;99.90
1948;DHT22;974;52.400;9.818;2022-07-10T01:03:36;14.10;99.90
1948;DHT22;974;52.400;9.818;2022-07-10T01:06:02;14.10;99.90
1948;DHT22;974;52.400;9.818;2022-07-10T01:08:28;14.10;99.90
1948;DHT22;974;52.400;9.818;2022-07-10T01:10:54;14.10;99.90
1948;DHT22;974;52.400;9.818;2022-07-10T01:13:19;14.10;99.90
1948;DHT22;974;52.400;9.818;2022-07-10T01:15:45;13.90;99.90
1948;DHT22;974;52.400;9.818;2022-07-10T01:18:12;13.90;99.90
1948;DHT22;974;52.400;9.818;2022-07-10T01:20:38;14.00;99.90
1948;DHT22;974;52.400;9.818;2022-07-10T01:23:03;14.00;99.90
1948;DHT22;974;52.400;9.818;2022-07-10T01:25:29;14.00;99.90
1948;DHT22;974;52.400;9.818;2022-07-10T01:27:54;13.90;99.90
1948;DHT22;974;52.400;9.818;2022-07-10T01:30:20;14.00;99.90
1948;DHT22;974;52.400;9.818;2022-07-10T01:32:47;13.90;99.90
1948;DHT22;974;52.400;9.818;2022-07-10T01:35:13;13.90;99.90
1948;DHT22;974;52.400;9.818;2022-07-10T01:37:40;13.90;99.90
1948;DHT22;974;52.400;9.818;2022-07-10T01:40:07;13.90;99.90
1948;DHT22;974;52.400;9.818;2022-07-10T01:42:35;13.90;99.90
1948;DHT22;974;52.400;9.818;2022-07-10T01:45:07;14.00;99.90
1948;DHT22;974;52.400;9.818;2022-07-10T01:47:33;13.90;99.90
1948;DHT22;974;52.400;9.818;2022-07-10T01:49:58;13.90;99.90
1948;DHT22;974;52.400;9.818;2022-07-10T01:52:24;13.90;99.90
1948;DHT22;974;52.400;9.818;2022-07-10T01:54:49;13.90;99.90
1948;DHT22;974;52.400;9.818;2022-07-10T01:57:15;13.80;99.90
1948;DHT22;974;52.400;9.818;2022-07-10T01:59:41;13.90;99.90
1948;DHT22;974;52.400;9.818;2022-07-10T02:02:07;13.80;99.90
1948;DHT22;974;52.400;9.818;2022-07-10T02:04:33;13.90;99.90
1948;DHT22;974;52.400;9.818;2022-07-10T02:07:18;13.80;99.90
1948;DHT22;974;52.400;9.818;2022-07-10T02:09:45;13.90;99.90
1948;DHT22;974;52.400;9.818;2022-07-10T02:12:13;13.90;99.90
1948;DHT22;974;52.400;9.818;2022-07-10T02:14:39;14.00;99.90
1948;DHT22;974;52.400;9.818;2022-07-10T02:17:06;13.90;99.90
1948;DHT22;974;52.400;9.818;2022-07-10T02:19:32;13.80;99.90
1948;DHT22;974;52.400;9.818;2022-07-10T02:21:58;13.80;99.90
1948;DHT22;974;52.400;9.818;2022-07-10T02:24:24;13.90;99.90
1948;DHT22;974;52.400;9.818;2022-07-10T02:26:49;13.90;99.90
1948;DHT22;974;52.400;9.818;2022-07-10T02:29:15;13.80;99.90
1948;DHT22;974;52.400;9.818;2022-07-10T02:31:41;13.90;99.90
1948;DHT22;974;52.400;9.818;2022-07-10T02:34:08;13.90;99.90
1948;DHT22;974;52.400;9.818;2022-07-10T02:36:34;13.80;99.90
1948;DHT22;974;52.400;9.818;2022-07-10T02:39:00;13.80;99.90
1948;DHT22;974;52.400;9.818;2022-07-10T02:41:26;13.90;99.90
1948;DHT22;974;52.400;9.818;2022-07-10T02:43:51;13.80;99.90
1948;DHT22;974;52.400;9.818;2022-07-10T02:46:17;13.70;99.90
1948;DHT22;974;52.400;9.818;2022-07-10T02:48:42;13.70;99.90
1948;DHT22;974;52.400;9.818;2022-07-10T02:51:08;13.60;99.90
1948;DHT22;974;52.400;9.818;2022-07-10T02:53:33;13.70;99.90
1948;DHT22;974;52.400;9.818;2022-07-10T02:55:59;13.70;99.90
1948;DHT22;974;52.400;9.818;2022-07-10T02:58:24;13.60;99.90
1948;DHT22;974;52.400;9.818;2022-07-10T03:00:51;13.70;99.90
1948;DHT22;974;52.400;9.818;2022-07-10T03:03:16;13.70;99.90
1948;DHT22;974;52.400;9.818;2022-07-10T03:05:43;13.70;99.90
1948;DHT22;974;52.400;9.818;2022-07-10T03:08:09;13.70;99.90
1948;DHT22;974;52.400;9.818;2022-07-10T03:10:35;13.70;99.90
1948;DHT22;974;52.400;9.818;2022-07-10T03:13:00;13.80;99.90
1948;DHT22;974;52.400;9.818;2022-07-10T03:15:27;13.60;99.90
1948;DHT22;974;52.400;9.818;2022-07-10T03:17:52;13.70;99.90
1948;DHT22;974;52.400;9.818;2022-07-10T03:20:18;13.70;99.90
1948;DHT22;974;52.400;9.818;2022-07-10T03:22:43;13.70;99.90
1948;DHT22;974;52.400;9.818;2022-07-10T03:25:09;13.70;99.90
1948;DHT22;974;52.400;9.818;2022-07-10T03:27:35;13.70;99.90
1948;DHT22;974;52.400;9.818;2022-07-10T03:30:00;13.70;99.90
1948;DHT22;974;52.400;9.818;2022-07-10T03:32:26;13.60;99.90
1948;DHT22;974;52.400;9.818;2022-07-10T03:34:52;13.70;99.90
1948;DHT22;974;52.400;9.818;2022-07-10T03:37:17;13.70;99.90
1948;DHT22;974;52.400;9.818;2022-07-10T03:39:43;13.70;99.90
1948;DHT22;974;52.400;9.818;2022-07-10T03:42:08;13.80;99.90
1948;DHT22;974;52.400;9.818;2022-07-10T03:44:34;13.70;99.90
1948;DHT22;974;52.400;9.818;2022-07-10T03:46:59;13.70;99.90
1948;DHT22;974;52.400;9.818;2022-07-10T03:49:25;13.70;99.90
1948;DHT22;974;52.400;9.818;2022-07-10T03:51:51;13.70;99.90
1948;DHT22;974;52.400;9.818;2022-07-10T03:54:16;13.80;99.90
1948;DHT22;974;52.400;9.818;2022-07-10T03:56:42;13.80;99.90
1948;DHT22;974;52.400;9.818;2022-07-10T03:59:26;13.80;99.90
1948;DHT22;974;52.400;9.818;2022-07-10T04:01:52;13.70;99.90
1948;DHT22;974;52.400;9.818;2022-07-10T04:04:17;13.70;99.90
1948;DHT22;974;52.400;9.818;2022-07-10T04:06:43;13.80;99.90
1948;DHT22;974;52.400;9.818;2022-07-10T04:09:08;13.80;99.90
1948;DHT22;974;52.400;9.818;2022-07-10T04:11:34;13.80;99.90
1948;DHT22;974;52.400;9.818;2022-07-10T04:13:59;13.70;99.90
1948;DHT22;974;52.400;9.818;2022-07-10T04:16:25;13.70;99.90
1948;DHT22;974;52.400;9.818;2022-07-10T04:18:51;13.80;99.90
1948;DHT22;974;52.400;9.818;2022-07-10T04:21:16;13.80;99.90
1948;DHT22;974;52.400;9.818;2022-07-10T04:23:42;13.80;99.90
1948;DHT22;974;52.400;9.818;2022-07-10T04:26:07;13.70;99.90
1948;DHT22;974;52.400;9.818;2022-07-10T04:28:33;13.60;99.90
1948;DHT22;974;52.400;9.818;2022-07-10T04:30:58;13.60;99.90
1948;DHT22;974;52.400;9.818;2022-07-10T04:33:25;13.70;99.90
1948;DHT22;974;52.400;9.818;2022-07-10T04:35:51;13.70;99.90
1948;DHT22;974;52.400;9.818;2022-07-10T04:38:16;13.70;99.90
1948;DHT22;974;52.400;9.818;2022-07-10T04:40:42;13.70;99.90
1948;DHT22;974;52.400;9.818;2022-07-10T04:43:07;13.70;99.90
1948;DHT22;974;52.400;9.818;2022-07-10T04:45:35;13.80;99.90
1948;DHT22;974;52.400;9.818;2022-07-10T04:48:03;13.70;99.90
1948;DHT22;974;52.400;9.818;2022-07-10T04:50:29;13.80;99.90
1948;DHT22;974;52.400;9.818;2022-07-10T04:52:56;13.80;99.90
1948;DHT22;974;52.400;9.818;2022-07-10T04:55:22;13.80;99.90
1948;DHT22;974;52.400;9.818;2022-07-10T04:57:47;13.90;99.90
1948;DHT22;974;52.400;9.818;2022-07-10T05:00:13;13.70;99.90
1948;DHT22;974;52.400;9.818;2022-07-10T05:02:39;13.70;99.90
1948;DHT22;974;52.400;9.818;2022-07-10T05:05:05;13.80;99.90
1948;DHT22;974;52.400;9.818;2022-07-10T05:07:31;13.70;99.90
1948;DHT22;974;52.400;9.818;2022-07-10T05:09:56;13.90;99.90
1948;DHT22;974;52.400;9.818;2022-07-10T05:12:22;13.90;99.90
1948;DHT22;974;52.400;9.818;2022-07-10T05:14:47;13.80;99.90
1948;DHT22;974;52.400;9.818;2022-07-10T05:17:13;13.80;99.90
1948;DHT22;974;52.400;9.818;2022-07-10T05:19:38;13.90;99.90
1948;DHT22;974;52.400;9.818;2022-07-10T05:22:04;13.80;99.90
1948;DHT22;974;52.400;9.818;2022-07-10T05:24:29;13.80;99.90
1948;DHT22;974;52.400;9.818;2022-07-10T05:26:55;13.90;99.90
1948;DHT22;974;52.400;9.818;2022-07-10T05:29:20;13.90;99.90
1948;DHT22;974;52.400;9.818;2022-07-10T05:31:46;13.80;99.90
1948;DHT22;974;52.400;9.818;2022-07-10T05:34:11;13.80;99.90
1948;DHT22;974;52.400;9.818;2022-07-10T05:36:37;13.80;99.90
1948;DHT22;974;52.400;9.818;2022-07-10T05:39:02;13.80;99.90
1948;DHT22;974;52.400;9.818;2022-07-10T05:41:28;13.70;99.90
1948;DHT22;974;52.400;9.818;2022-07-10T05:43:54;13.70;99.90
1948;DHT22;974;52.400;9.818;2022-07-10T05:46:20;13.90;99.90
1948;DHT22;974;52.400;9.818;2022-07-10T05:48:46;13.90;99.90
1948;DHT22;974;52.400;9.818;2022-07-10T05:51:11;13.90;99.90
1948;DHT22;974;52.400;9.818;2022-07-10T05:53:37;14.10;99.90
1948;DHT22;974;52.400;9.818;2022-07-10T05:56:03;14.00;99.90
1948;DHT22;974;52.400;9.818;2022-07-10T05:58:28;14.00;99.90
1948;DHT22;974;52.400;9.818;2022-07-10T06:00:55;14.10;99.90
1948;DHT22;974;52.400;9.818;2022-07-10T06:03:20;14.10;99.90
1948;DHT22;974;52.400;9.818;2022-07-10T06:05:47;14.10;99.90
1948;DHT22;974;52.400;9.818;2022-07-10T06:08:12;14.10;99.90
1948;DHT22;974;52.400;9.818;2022-07-10T06:10:38;14.10;99.90
1948;DHT22;974;52.400;9.818;2022-07-10T06:13:05;14.20;99.90
1948;DHT22;974;52.400;9.818;2022-07-10T06:15:31;14.10;99.90
1948;DHT22;974;52.400;9.818;2022-07-10T06:17:57;14.20;99.90
1948;DHT22;974;52.400;9.818;2022-07-10T06:20:26;14.30;99.90
1948;DHT22;974;52.400;9.818;2022-07-10T06:22:52;14.30;99.90
1948;DHT22;974;52.400;9.818;2022-07-10T06:25:18;14.30;99.90
1948;DHT22;974;52.400;9.818;2022-07-10T06:27:44;14.40;99.90
1948;DHT22;974;52.400;9.818;2022-07-10T06:30:10;14.50;99.90
1948;DHT22;974;52.400;9.818;2022-07-10T06:32:35;14.40;99.90
1948;DHT22;974;52.400;9.818;2022-07-10T06:35:01;14.40;99.90
1948;DHT22;974;52.400;9.818;2022-07-10T06:37:27;14.50;99.90
1948;DHT22;974;52.400;9.818;2022-07-10T06:39:53;14.60;99.90
1948;DHT22;974;52.400;9.818;2022-07-10T06:42:18;14.60;99.90
1948;DHT22;974;52.400;9.818;2022-07-10T06:44:44;14.60;99.90
1948;DHT22;974;52.400;9.818;2022-07-10T06:47:12;14.70;99.90
1948;DHT22;974;52.400;9.818;2022-07-10T06:49:56;14.70;99.90
1948;DHT22;974;52.400;9.818;2022-07-10T06:52:22;14.60;99.90
1948;DHT22;974;52.400;9.818;2022-07-10T06:54:48;14.60;99.90
1948;DHT22;974;52.400;9.818;2022-07-10T06:57:14;14.70;99.90
1948;DHT22;974;52.400;9.818;2022-07-10T06:59:39;14.80;99.90
1948;DHT22;974;52.400;9.818;2022-07-10T07:02:05;14.80;99.90
1948;DHT22;974;52.400;9.818;2022-07-10T07:04:31;14.90;99.90
1948;DHT22;974;52.400;9.818;2022-07-10T07:06:57;15.10;99.90
1948;DHT22;974;52.400;9.818;2022-07-10T07:09:22;15.20;99.90
1948;DHT22;974;52.400;9.818;2022-07-10T07:11:48;15.10;99.90
1948;DHT22;974;52.400;9.818;2022-07-10T07:14:13;15.20;99.90
1948;DHT22;974;52.400;9.818;2022-07-10T07:16:39;15.20;99.90
1948;DHT22;974;52.400;9.818;2022-07-10T07:19:09;15.30;99.90
1948;DHT22;974;52.400;9.818;2022-07-10T07:21:36;15.10;99.90
1948;DHT22;974;52.400;9.818;2022-07-10T07:24:28;15.10;99.90
1948;DHT22;974;52.400;9.818;2022-07-10T07:26:54;15.20;99.90
1948;DHT22;974;52.400;9.818;2022-07-10T07:29:19;15.40;99.90
1948;DHT22;974;52.400;9.818;2022-07-10T07:35:08;15.40;99.90
1948;DHT22;974;52.400;9.818;2022-07-10T07:37:43;15.40;99.90
1948;DHT22;974;52.400;9.818;2022-07-10T07:40:11;15.30;99.90
1948;DHT22;974;52.400;9.818;2022-07-10T07:42:38;15.30;99.90
1948;DHT22;974;52.400;9.818;2022-07-10T07:45:04;15.20;99.90
1948;DHT22;974;52.400;9.818;2022-07-10T07:47:31;15.40;99.90
1948;DHT22;974;52.400;9.818;2022-07-10T07:50:02;15.50;99.90
1948;DHT22;974;52.400;9.818;2022-07-10T07:52:28;15.80;99.90
1948;DHT22;974;52.400;9.818;2022-07-10T07:54:54;15.80;99.90
1948;DHT22;974;52.400;9.818;2022-07-10T07:57:19;15.90;99.90
1948;DHT22;974;52.400;9.818;2022-07-10T07:59:45;15.80;99.90
1948;DHT22;974;52.400;9.818;2022-07-10T08:02:10;15.90;99.90
1948;DHT22;974;52.400;9.818;2022-07-10T08:04:36;16.00;99.90
1948;DHT22;974;52.400;9.818;2022-07-10T08:07:02;15.90;99.90
1948;DHT22;974;52.400;9.818;2022-07-10T08:09:27;15.80;99.90
1948;DHT22;974;52.400;9.818;2022-07-10T08:11:53;15.90;99.90
1948;DHT22;974;52.400;9.818;2022-07-10T08:14:18;15.80;99.90
1948;DHT22;974;52.400;9.818;2022-07-10T08:16:44;15.80;99.90
1948;DHT22;974;52.400;9.818;2022-07-10T08:19:09;16.00;99.90
1948;DHT22;974;52.400;9.818;2022-07-10T08:21:35;16.20;99.90
1948;DHT22;974;52.400;9.818;2022-07-10T08:24:00;16.20;99.90
1948;DHT22;974;52.400;9.818;2022-07-10T08:26:26;16.20;99.90
1948;DHT22;974;52.400;9.818;2022-07-10T08:28:52;16.10;99.90
1948;DHT22;974;52.400;9.818;2022-07-10T08:31:17;16.20;99.90
1948;DHT22;974;52.400;9.818;2022-07-10T08:33:43;16.30;99.90
1948;DHT22;974;52.400;9.818;2022-07-10T08:36:08;16.40;99.90
1948;DHT22;974;52.400;9.818;2022-07-10T08:38:34;16.40;99.90
1948;DHT22;974;52.400;9.818;2022-07-10T08:41:00;16.40;99.90
1948;DHT22;974;52.400;9.818;2022-07-10T08:43:28;16.60;99.90
1948;DHT22;974;52.400;9.818;2022-07-10T08:45:54;16.40;99.90
1948;DHT22;974;52.400;9.818;2022-07-10T08:48:23;16.50;99.90
1948;DHT22;974;52.400;9.818;2022-07-10T08:50:53;16.60;99.90
1948;DHT22;974;52.400;9.818;2022-07-10T08:53:29;16.60;99.90
1948;DHT22;974;52.400;9.818;2022-07-10T08:55:56;16.50;99.90
1948;DHT22;974;52.400;9.818;2022-07-10T08:58:22;16.50;99.90
1948;DHT22;974;52.400;9.818;2022-07-10T09:00:48;16.70;99.90
1948;DHT22;974;52.400;9.818;2022-07-10T09:03:14;17.00;99.90
1948;DHT22;974;52.400;9.818;2022-07-10T09:05:39;17.20;99.90
1948;DHT22;974;52.400;9.818;2022-07-10T09:10:47;17.00;99.90
1948;DHT22;974;52.400;9.818;2022-07-10T09:13:13;17.00;99.90
1948;DHT22;974;52.400;9.818;2022-07-10T09:15:38;16.90;99.90
1948;DHT22;974;52.400;9.818;2022-07-10T09:18:05;16.90;99.90
1948;DHT22;974;52.400;9.818;2022-07-10T09:20:38;16.80;99.90
1948;DHT22;974;52.400;9.818;2022-07-10T09:23:18;16.80;99.90
1948;DHT22;974;52.400;9.818;2022-07-10T09:25:49;16.80;99.90
1948;DHT22;974;52.400;9.818;2022-07-10T09:28:18;16.60;99.90
1948;DHT22;974;52.400;9.818;2022-07-10T09:30:44;16.50;99.90
1948;DHT22;974;52.400;9.818;2022-07-10T09:33:27;16.60;99.90
1948;DHT22;974;52.400;9.818;2022-07-10T09:36:02;16.70;99.90
1948;DHT22;974;52.400;9.818;2022-07-10T09:38:48;16.80;99.90
1948;DHT22;974;52.400;9.818;2022-07-10T09:41:24;17.20;99.90
1948;DHT22;974;52.400;9.818;2022-07-10T09:46:21;17.40;99.90
1948;DHT22;974;52.400;9.818;2022-07-10T09:48:48;17.20;99.90
1948;DHT22;974;52.400;9.818;2022-07-10T09:51:14;17.10;99.90
1948;DHT22;974;52.400;9.818;2022-07-10T09:53:43;17.20;99.90
1948;DHT22;974;52.400;9.818;2022-07-10T09:56:11;17.20;99.90
1948;DHT22;974;52.400;9.818;2022-07-10T09:58:38;17.20;99.90
1948;DHT22;974;52.400;9.818;2022-07-10T10:01:05;17.30;99.90
1948;DHT22;974;52.400;9.818;2022-07-10T10:03:36;17.30;99.90
1948;DHT22;974;52.400;9.818;2022-07-10T10:08:47;17.40;99.90
1948;DHT22;974;52.400;9.818;2022-07-10T10:11:15;17.70;99.90
1948;DHT22;974;52.400;9.818;2022-07-10T10:13:43;18.00;99.90
1948;DHT22;974;52.400;9.818;2022-07-10T10:16:09;17.80;99.90
1948;DHT22;974;52.400;9.818;2022-07-10T10:18:36;17.80;99.90
1948;DHT22;974;52.400;9.818;2022-07-10T10:21:22;17.90;99.90
1948;DHT22;974;52.400;9.818;2022-07-10T10:23:49;17.80;99.90
1948;DHT22;974;52.400;9.818;2022-07-10T10:26:15;17.80;99.90
1948;DHT22;974;52.400;9.818;2022-07-10T10:28:42;17.80;99.90
1948;DHT22;974;52.400;9.818;2022-07-10T10:31:08;17.90;99.90
1948;DHT22;974;52.400;9.818;2022-07-10T10:36:02;18.30;99.90
1948;DHT22;974;52.400;9.818;2022-07-10T10:38:59;18.40;99.90
1948;DHT22;974;52.400;9.818;2022-07-10T10:41:25;18.30;99.90
1948;DHT22;974;52.400;9.818;2022-07-10T10:46:32;17.90;99.90
1948;DHT22;974;52.400;9.818;2022-07-10T10:49:05;17.80;99.90
1948;DHT22;974;52.400;9.818;2022-07-10T10:52:04;18.00;99.90
1948;DHT22;974;52.400;9.818;2022-07-10T10:59:57;18.50;99.90
1948;DHT22;974;52.400;9.818;2022-07-10T11:02:31;18.70;99.90
1948;DHT22;974;52.400;9.818;2022-07-10T11:08:02;18.50;99.90
1948;DHT22;974;52.400;9.818;2022-07-10T11:15:45;18.60;99.90
1948;DHT22;974;52.400;9.818;2022-07-10T11:18:12;18.50;99.90
1948;DHT22;974;52.400;9.818;2022-07-10T11:20:40;18.70;99.90
1948;DHT22;974;52.400;9.818;2022-07-10T11:28:55;18.70;99.90
1948;DHT22;974;52.400;9.818;2022-07-10T11:31:25;18.70;99.90
1948;DHT22;974;52.400;9.818;2022-07-10T11:33:53;21.10;99.90
1948;DHT22;974;52.400;9.818;2022-07-10T11:36:21;21.80;99.90
1948;DHT22;974;52.400;9.818;2022-07-10T11:41:23;22.20;99.90
1948;DHT22;974;52.400;9.818;2022-07-10T11:43:57;23.70;99.90
1948;DHT22;974;52.400;9.818;2022-07-10T11:46:25;23.80;99.90
1948;DHT22;974;52.400;9.818;2022-07-10T11:48:52;22.50;99.90
1948;DHT22;974;52.400;9.818;2022-07-10T11:51:40;22.20;99.90
1948;DHT22;974;52.400;9.818;2022-07-10T11:54:13;21.70;99.90
1948;DHT22;974;52.400;9.818;2022-07-10T11:56:45;21.10;99.90
1948;DHT22;974;52.400;9.818;2022-07-10T11:59:13;20.50;99.90
1948;DHT22;974;52.400;9.818;2022-07-10T12:01:48;20.40;99.90
1948;DHT22;974;52.400;9.818;2022-07-10T12:04:16;20.30;99.90
1948;DHT22;974;52.400;9.818;2022-07-10T12:06:46;19.70;99.90
1948;DHT22;974;52.400;9.818;2022-07-10T12:09:14;19.40;99.90
1948;DHT22;974;52.400;9.818;2022-07-10T12:11:40;19.70;99.90
1948;DHT22;974;52.400;9.818;2022-07-10T12:14:20;19.50;99.90
1948;DHT22;974;52.400;9.818;2022-07-10T12:16:50;20.10;99.90
1948;DHT22;974;52.400;9.818;2022-07-10T12:19:18;19.90;99.90
1948;DHT22;974;52.400;9.818;2022-07-10T12:21:45;20.50;99.90
1948;DHT22;974;52.400;9.818;2022-07-10T12:24:13;20.20;99.90
1948;DHT22;974;52.400;9.818;2022-07-10T12:26:40;20.10;99.90
1948;DHT22;974;52.400;9.818;2022-07-10T12:29:13;19.70;99.90
1948;DHT22;974;52.400;9.818;2022-07-10T12:31:44;19.20;99.90
1948;DHT22;974;52.400;9.818;2022-07-10T12:34:11;19.30;99.90
1948;DHT22;974;52.400;9.818;2022-07-10T12:36:50;19.10;99.90
1948;DHT22;974;52.400;9.818;2022-07-10T12:39:24;19.30;99.90
1948;DHT22;974;52.400;9.818;2022-07-10T12:42:08;20.20;99.90
1948;DHT22;974;52.400;9.818;2022-07-10T12:44:44;20.20;99.90
1948;DHT22;974;52.400;9.818;2022-07-10T12:47:20;19.60;99.90
1948;DHT22;974;52.400;9.818;2022-07-10T12:52:25;19.00;99.90
1948;DHT22;974;52.400;9.818;2022-07-10T13:00:45;18.70;99.90
1948;DHT22;974;52.400;9.818;2022-07-10T13:03:19;18.50;99.90
1948;DHT22;974;52.400;9.818;2022-07-10T13:05:47;18.40;99.90
1948;DHT22;974;52.400;9.818;2022-07-10T13:08:15;18.40;99.90
1948;DHT22;974;52.400;9.818;2022-07-10T13:10:48;18.20;99.90
1948;DHT22;974;52.400;9.818;2022-07-10T13:13:14;18.00;99.90
1948;DHT22;974;52.400;9.818;2022-07-10T13:15:40;17.80;99.90
1948;DHT22;974;52.400;9.818;2022-07-10T13:18:19;17.80;99.90
1948;DHT22;974;52.400;9.818;2022-07-10T13:20:50;17.80;99.90
1948;DHT22;974;52.400;9.818;2022-07-10T13:23:16;17.70;99.90
1948;DHT22;974;52.400;9.818;2022-07-10T13:25:44;17.70;99.90
1948;DHT22;974;52.400;9.818;2022-07-10T13:28:10;17.80;99.90
1948;DHT22;974;52.400;9.818;2022-07-10T13:30:39;17.60;99.90
1948;DHT22;974;52.400;9.818;2022-07-10T13:33:04;17.80;99.90
1948;DHT22;974;52.400;9.818;2022-07-10T13:35:32;17.80;99.90
1948;DHT22;974;52.400;9.818;2022-07-10T13:37:59;17.90;99.90
1948;DHT22;974;52.400;9.818;2022-07-10T13:40:28;17.70;99.90
1948;DHT22;974;52.400;9.818;2022-07-10T13:42:56;17.80;99.90
1948;DHT22;974;52.400;9.818;2022-07-10T13:45:22;17.80;99.90
1948;DHT22;974;52.400;9.818;2022-07-10T13:47:48;17.80;99.90
1948;DHT22;974;52.400;9.818;2022-07-10T13:50:14;17.90;99.90
1948;DHT22;974;52.400;9.818;2022-07-10T13:52:39;18.00;99.90
1948;DHT22;974;52.400;9.818;2022-07-10T13:55:05;18.10;99.90
1948;DHT22;974;52.400;9.818;2022-07-10T13:57:32;18.00;99.90
1948;DHT22;974;52.400;9.818;2022-07-10T13:59:57;18.00;99.90
1948;DHT22;974;52.400;9.818;2022-07-10T14:02:23;18.00;99.90
1948;DHT22;974;52.400;9.818;2022-07-10T14:04:49;17.70;99.90
1948;DHT22;974;52.400;9.818;2022-07-10T14:07:14;17.70;99.90
1948;DHT22;974;52.400;9.818;2022-07-10T14:09:40;17.70;99.90
1948;DHT22;974;52.400;9.818;2022-07-10T14:12:06;17.80;99.90
1948;DHT22;974;52.400;9.818;2022-07-10T14:14:31;17.50;99.90
1948;DHT22;974;52.400;9.818;2022-07-10T14:16:57;17.80;99.90
1948;DHT22;974;52.400;9.818;2022-07-10T14:19:22;17.70;99.90
1948;DHT22;974;52.400;9.818;2022-07-10T14:21:48;17.50;99.90
1948;DHT22;974;52.400;9.818;2022-07-10T14:24:14;17.50;99.90
1948;DHT22;974;52.400;9.818;2022-07-10T14:26:39;17.50;99.90
1948;DHT22;974;52.400;9.818;2022-07-10T14:29:05;17.30;99.90
1948;DHT22;974;52.400;9.818;2022-07-10T14:31:31;17.20;99.90
1948;DHT22;974;52.400;9.818;2022-07-10T14:33:56;17.30;99.90
1948;DHT22;974;52.400;9.818;2022-07-10T14:36:22;17.50;99.90
1948;DHT22;974;52.400;9.818;2022-07-10T14:38:57;17.70;99.90
1948;DHT22;974;52.400;9.818;2022-07-10T14:41:23;17.80;99.90
1948;DHT22;974;52.400;9.818;2022-07-10T14:43:50;17.80;99.90
1948;DHT22;974;52.400;9.818;2022-07-10T14:46:15;18.00;99.90
1948;DHT22;974;52.400;9.818;2022-07-10T14:48:41;18.00;99.90
1948;DHT22;974;52.400;9.818;2022-07-10T14:51:07;18.00;99.90
1948;DHT22;974;52.400;9.818;2022-07-10T14:53:35;17.90;99.90
1948;DHT22;974;52.400;9.818;2022-07-10T14:56:05;18.40;99.90
1948;DHT22;974;52.400;9.818;2022-07-10T14:58:31;18.20;99.90
1948;DHT22;974;52.400;9.818;2022-07-10T15:00:57;18.30;99.90
1948;DHT22;974;52.400;9.818;2022-07-10T15:03:23;18.30;99.90
1948;DHT22;974;52.400;9.818;2022-07-10T15:05:50;18.20;99.90
1948;DHT22;974;52.400;9.818;2022-07-10T15:08:19;18.30;99.90
1948;DHT22;974;52.400;9.818;2022-07-10T15:10:45;18.50;99.90
1948;DHT22;974;52.400;9.818;2022-07-10T15:13:11;18.60;99.90
1948;DHT22;974;52.400;9.818;2022-07-10T15:15:37;18.50;99.90
1948;DHT22;974;52.400;9.818;2022-07-10T15:18:02;18.40;99.90
1948;DHT22;974;52.400;9.818;2022-07-10T15:20:28;18.20;99.90
1948;DHT22;974;52.400;9.818;2022-07-10T15:22:54;18.20;99.90
1948;DHT22;974;52.400;9.818;2022-07-10T15:25:19;18.20;99.90
1948;DHT22;974;52.400;9.818;2022-07-10T15:27:45;18.10;99.90
1948;DHT22;974;52.400;9.818;2022-07-10T15:30:10;18.00;99.90
1948;DHT22;974;52.400;9.818;2022-07-10T15:32:39;17.80;99.90
1948;DHT22;974;52.400;9.818;2022-07-10T15:35:05;17.80;99.90
1948;DHT22;974;52.400;9.818;2022-07-10T15:37:32;17.70;99.90
1948;DHT22;974;52.400;9.818;2022-07-10T15:39:57;17.80;99.90
1948;DHT22;974;52.400;9.818;2022-07-10T15:42:29;17.90;99.90
1948;DHT22;974;52.400;9.818;2022-07-10T15:44:54;18.00;99.90
1948;DHT22;974;52.400;9.818;2022-07-10T15:47:20;17.90;99.90
1948;DHT22;974;52.400;9.818;2022-07-10T15:49:45;18.00;99.90
1948;DHT22;974;52.400;9.818;2022-07-10T15:52:11;18.10;99.90
1948;DHT22;974;52.400;9.818;2022-07-10T15:54:40;17.90;99.90
1948;DHT22;974;52.400;9.818;2022-07-10T15:57:07;18.00;99.90
1948;DHT22;974;52.400;9.818;2022-07-10T15:59:33;17.80;99.90
1948;DHT22;974;52.400;9.818;2022-07-10T16:02:00;17.80;99.90
1948;DHT22;974;52.400;9.818;2022-07-10T16:04:29;17.80;99.90
1948;DHT22;974;52.400;9.818;2022-07-10T16:06:54;17.70;99.90
1948;DHT22;974;52.400;9.818;2022-07-10T16:09:20;17.60;99.90
1948;DHT22;974;52.400;9.818;2022-07-10T16:11:46;17.60;99.90
1948;DHT22;974;52.400;9.818;2022-07-10T16:14:12;17.70;99.90
1948;DHT22;974;52.400;9.818;2022-07-10T16:16:38;17.70;99.90
1948;DHT22;974;52.400;9.818;2022-07-10T16:19:05;17.70;99.90
1948;DHT22;974;52.400;9.818;2022-07-10T16:21:33;17.80;99.90
1948;DHT22;974;52.400;9.818;2022-07-10T16:24:00;17.70;99.90
1948;DHT22;974;52.400;9.818;2022-07-10T16:26:26;17.50;99.90
1948;DHT22;974;52.400;9.818;2022-07-10T16:28:51;17.50;99.90
1948;DHT22;974;52.400;9.818;2022-07-10T16:31:17;17.70;99.90
1948;DHT22;974;52.400;9.818;2022-07-10T16:33:43;17.60;99.90
1948;DHT22;974;52.400;9.818;2022-07-10T16:36:10;17.50;99.90
1948;DHT22;974;52.400;9.818;2022-07-10T16:38:35;17.40;99.90
1948;DHT22;974;52.400;9.818;2022-07-10T16:41:01;17.50;99.90
1948;DHT22;974;52.400;9.818;2022-07-10T16:43:27;17.70;99.90
1948;DHT22;974;52.400;9.818;2022-07-10T16:45:56;17.80;99.90
1948;DHT22;974;52.400;9.818;2022-07-10T16:48:22;18.00;99.90
1948;DHT22;974;52.400;9.818;2022-07-10T16:50:51;18.10;99.90
1948;DHT22;974;52.400;9.818;2022-07-10T16:53:17;18.20;99.90
1948;DHT22;974;52.400;9.818;2022-07-10T16:55:44;18.20;99.90
1948;DHT22;974;52.400;9.818;2022-07-10T16:58:10;18.20;99.90
1948;DHT22;974;52.400;9.818;2022-07-10T17:00:36;18.00;99.90
1948;DHT22;974;52.400;9.818;2022-07-10T17:03:03;18.10;99.90